sensor_id;sensor_type;location;lat;lon;timestamp;pressure;altitude;pressure_sealevel;temperature;humidity
59272;BME280;45043;51.068;7.026;2023-08-07T00:02:08;100132.75;;;9.15;78.02
59272;BME280;45043;51.068;7.026;2023-08-07T00:05:11;100108.31;;;9.13;78.10
59272;BME280;45043;51.068;7.026;2023-08-07T00:08:12;100086.06;;;9.14;77.89
59272;BME280;45043;51.068;7.026;2023-08-07T00:11:13;100093.38;;;9.12;78.37
59272;BME280;45043;51.068;7.026;2023-08-07T00:14:14;100145.16;;;9.08;78.26
59272;BME280;45043;51.068;7.026;2023-08-07T00:17:15;100129.03;;;9.03;78.86
59272;BME280;45043;51.068;7.026;2023-08-07T00:20:15;100092.31;;;9.00;78.60
59272;BME280;45043;51.068;7.026;2023-08-07T00:23:16;100090.88;;;8.97;78.95
59272;BME280;45043;51.068;7.026;2023-08-07T00:26:17;100114.91;;;8.96;79.17
59272;BME280;45043;51.068;7.026;2023-08-07T00:29:18;100104.53;;;8.94;79.80
59272;BME280;45043;51.068;7.026;2023-08-07T00:32:19;100101.66;;;8.96;79.45
59272;BME280;45043;51.068;7.026;2023-08-07T00:35:20;100074.75;;;8.92;79.34
59272;BME280;45043;51.068;7.026;2023-08-07T00:38:21;100118.72;;;8.87;79.97
59272;BME280;45043;51.068;7.026;2023-08-07T00:41:23;100099.56;;;8.85;80.24
59272;BME280;45043;51.068;7.026;2023-08-07T00:44:24;100087.50;;;8.82;80.76
59272;BME280;45043;51.068;7.026;2023-08-07T00:47:26;100093.03;;;8.80;80.87
59272;BME280;45043;51.068;7.026;2023-08-07T00:50:27;100099.13;;;8.81;81.12
59272;BME280;45043;51.068;7.026;2023-08-07T00:53:28;100139.69;;;8.82;81.17
59272;BME280;45043;51.068;7.026;2023-08-07T00:56:30;100103.63;;;8.80;81.20
59272;BME280;45043;51.068;7.026;2023-08-07T00:59:32;100127.63;;;8.79;81.08
59272;BME280;45043;51.068;7.026;2023-08-07T01:02:34;100112.59;;;8.79;81.41
59272;BME280;45043;51.068;7.026;2023-08-07T01:05:35;100090.53;;;8.79;81.09
59272;BME280;45043;51.068;7.026;2023-08-07T01:08:36;100119.25;;;8.75;81.70
59272;BME280;45043;51.068;7.026;2023-08-07T01:11:55;100134.53;;;8.73;81.99
59272;BME280;45043;51.068;7.026;2023-08-07T01:18:07;100112.09;;;8.69;82.26
59272;BME280;45043;51.068;7.026;2023-08-07T01:21:17;100179.69;;;8.65;82.17
59272;BME280;45043;51.068;7.026;2023-08-07T01:24:19;100107.94;;;8.60;82.64
59272;BME280;45043;51.068;7.026;2023-08-07T01:30:38;100118.75;;;8.59;83.09
59272;BME280;45043;51.068;7.026;2023-08-07T01:33:58;100139.91;;;8.59;83.48
59272;BME280;45043;51.068;7.026;2023-08-07T01:37:01;100105.28;;;8.60;83.44
59272;BME280;45043;51.068;7.026;2023-08-07T01:40:05;100118.53;;;8.60;83.88
59272;BME280;45043;51.068;7.026;2023-08-07T01:43:08;100104.31;;;8.61;83.84
59272;BME280;45043;51.068;7.026;2023-08-07T01:46:11;100145.66;;;8.62;83.55
59272;BME280;45043;51.068;7.026;2023-08-07T01:49:11;100102.84;;;8.59;83.74
59272;BME280;45043;51.068;7.026;2023-08-07T01:52:12;100131.97;;;8.59;83.48
59272;BME280;45043;51.068;7.026;2023-08-07T01:55:18;100118.91;;;8.57;83.87
59272;BME280;45043;51.068;7.026;2023-08-07T01:58:24;100129.13;;;8.60;83.73
59272;BME280;45043;51.068;7.026;2023-08-07T02:01:25;100128.31;;;8.60;83.62
59272;BME280;45043;51.068;7.026;2023-08-07T02:04:26;100150.31;;;8.60;84.28
59272;BME280;45043;51.068;7.026;2023-08-07T02:07:27;100130.78;;;8.61;83.92
59272;BME280;45043;51.068;7.026;2023-08-07T02:10:28;100141.38;;;8.61;83.73
59272;BME280;45043;51.068;7.026;2023-08-07T02:13:29;100136.25;;;8.60;83.64
59272;BME280;45043;51.068;7.026;2023-08-07T02:16:30;100194.78;;;8.65;83.69
59272;BME280;45043;51.068;7.026;2023-08-07T02:19:31;100159.75;;;8.69;83.57
59272;BME280;45043;51.068;7.026;2023-08-07T02:22:33;100135.50;;;8.66;83.16
59272;BME280;45043;51.068;7.026;2023-08-07T02:25:34;100184.56;;;8.62;83.76
59272;BME280;45043;51.068;7.026;2023-08-07T02:28:35;100174.34;;;8.59;83.77
59272;BME280;45043;51.068;7.026;2023-08-07T02:31:36;100174.72;;;8.55;84.00
59272;BME280;45043;51.068;7.026;2023-08-07T02:34:36;100151.09;;;8.54;84.05
59272;BME280;45043;51.068;7.026;2023-08-07T02:37:37;100142.13;;;8.55;83.65
59272;BME280;45043;51.068;7.026;2023-08-07T02:40:39;100136.59;;;8.50;83.43
59272;BME280;45043;51.068;7.026;2023-08-07T02:43:41;100146.16;;;8.51;83.68
59272;BME280;45043;51.068;7.026;2023-08-07T02:46:43;100159.59;;;8.49;83.80
59272;BME280;45043;51.068;7.026;2023-08-07T02:49:44;100162.06;;;8.51;83.85
59272;BME280;45043;51.068;7.026;2023-08-07T02:52:45;100142.50;;;8.52;83.77
59272;BME280;45043;51.068;7.026;2023-08-07T02:55:46;100143.69;;;8.49;84.02
59272;BME280;45043;51.068;7.026;2023-08-07T02:58:47;100131.47;;;8.48;83.92
59272;BME280;45043;51.068;7.026;2023-08-07T03:01:50;100166.09;;;8.47;83.90
59272;BME280;45043;51.068;7.026;2023-08-07T03:04:51;100123.75;;;8.47;83.93
59272;BME280;45043;51.068;7.026;2023-08-07T03:07:52;100149.41;;;8.46;84.02
59272;BME280;45043;51.068;7.026;2023-08-07T03:10:55;100164.19;;;8.41;84.14
59272;BME280;45043;51.068;7.026;2023-08-07T03:13:58;100133.44;;;8.40;84.26
59272;BME280;45043;51.068;7.026;2023-08-07T03:16:59;100142.00;;;8.42;83.95
59272;BME280;45043;51.068;7.026;2023-08-07T03:20:01;100157.88;;;8.42;84.33
59272;BME280;45043;51.068;7.026;2023-08-07T03:23:02;100152.22;;;8.45;84.48
59272;BME280;45043;51.068;7.026;2023-08-07T03:26:05;100142.06;;;8.48;84.25
59272;BME280;45043;51.068;7.026;2023-08-07T03:29:07;100149.84;;;8.50;84.25
59272;BME280;45043;51.068;7.026;2023-08-07T03:32:08;100126.19;;;8.48;84.23
59272;BME280;45043;51.068;7.026;2023-08-07T03:35:12;100174.63;;;8.42;84.35
59272;BME280;45043;51.068;7.026;2023-08-07T03:38:14;100154.78;;;8.38;84.41
59272;BME280;45043;51.068;7.026;2023-08-07T03:41:15;100185.56;;;8.39;84.65
59272;BME280;45043;51.068;7.026;2023-08-07T03:44:17;100170.31;;;8.41;84.02
59272;BME280;45043;51.068;7.026;2023-08-07T03:47:17;100163.81;;;8.44;84.57
59272;BME280;45043;51.068;7.026;2023-08-07T03:50:18;100164.19;;;8.41;83.74
59272;BME280;45043;51.068;7.026;2023-08-07T03:53:22;100158.91;;;8.41;84.01
59272;BME280;45043;51.068;7.026;2023-08-07T03:56:23;100192.94;;;8.44;83.98
59272;BME280;45043;51.068;7.026;2023-08-07T03:59:25;100184.78;;;8.45;83.82
59272;BME280;45043;51.068;7.026;2023-08-07T04:02:26;100201.50;;;8.46;83.32
59272;BME280;45043;51.068;7.026;2023-08-07T04:05:52;100169.72;;;8.46;83.70
59272;BME280;45043;51.068;7.026;2023-08-07T04:08:53;100189.09;;;8.46;83.58
59272;BME280;45043;51.068;7.026;2023-08-07T04:11:54;100178.69;;;8.45;83.78
59272;BME280;45043;51.068;7.026;2023-08-07T04:14:56;100199.50;;;8.48;83.25
59272;BME280;45043;51.068;7.026;2023-08-07T04:17:57;100158.31;;;8.45;83.09
59272;BME280;45043;51.068;7.026;2023-08-07T04:20:58;100165.44;;;8.45;83.27
59272;BME280;45043;51.068;7.026;2023-08-07T04:23:59;100184.78;;;8.45;83.42
59272;BME280;45043;51.068;7.026;2023-08-07T04:27:11;100159.78;;;8.48;83.21
59272;BME280;45043;51.068;7.026;2023-08-07T04:30:12;100188.69;;;8.49;83.17
59272;BME280;45043;51.068;7.026;2023-08-07T04:33:13;100170.38;;;8.48;83.15
59272;BME280;45043;51.068;7.026;2023-08-07T04:36:14;100179.94;;;8.49;82.98
59272;BME280;45043;51.068;7.026;2023-08-07T04:39:15;100224.13;;;8.48;82.87
59272;BME280;45043;51.068;7.026;2023-08-07T04:42:16;100186.06;;;8.49;82.82
59272;BME280;45043;51.068;7.026;2023-08-07T04:45:17;100197.84;;;8.68;82.97
59272;BME280;45043;51.068;7.026;2023-08-07T04:48:18;100206.34;;;8.85;82.45
59272;BME280;45043;51.068;7.026;2023-08-07T04:51:21;100196.59;;;8.92;81.86
59272;BME280;45043;51.068;7.026;2023-08-07T04:54:23;100184.44;;;8.98;81.89
59272;BME280;45043;51.068;7.026;2023-08-07T04:57:24;100189.03;;;9.17;81.45
59272;BME280;45043;51.068;7.026;2023-08-07T05:00:24;100187.28;;;9.31;81.04
59272;BME280;45043;51.068;7.026;2023-08-07T05:03:26;100180.97;;;9.32;80.87
59272;BME280;45043;51.068;7.026;2023-08-07T05:06:31;100197.59;;;9.47;81.05
59272;BME280;45043;51.068;7.026;2023-08-07T05:09:31;100190.13;;;9.58;79.97
59272;BME280;45043;51.068;7.026;2023-08-07T05:12:32;100173.88;;;9.74;79.70
59272;BME280;45043;51.068;7.026;2023-08-07T05:15:33;100165.34;;;9.85;79.29
59272;BME280;45043;51.068;7.026;2023-08-07T05:18:34;100186.34;;;9.87;78.88
59272;BME280;45043;51.068;7.026;2023-08-07T05:21:34;100168.22;;;9.97;78.60
59272;BME280;45043;51.068;7.026;2023-08-07T05:24:35;100175.38;;;10.03;78.11
59272;BME280;45043;51.068;7.026;2023-08-07T05:27:39;100189.91;;;10.07;77.72
59272;BME280;45043;51.068;7.026;2023-08-07T05:30:41;100198.28;;;10.11;77.27
59272;BME280;45043;51.068;7.026;2023-08-07T05:33:42;100194.41;;;10.13;76.23
59272;BME280;45043;51.068;7.026;2023-08-07T05:36:43;100198.88;;;10.13;76.40
59272;BME280;45043;51.068;7.026;2023-08-07T05:39:44;100194.00;;;10.16;76.08
59272;BME280;45043;51.068;7.026;2023-08-07T05:42:45;100202.19;;;10.21;75.84
59272;BME280;45043;51.068;7.026;2023-08-07T05:45:45;100213.22;;;10.25;75.35
59272;BME280;45043;51.068;7.026;2023-08-07T05:48:46;100213.63;;;10.22;74.78
59272;BME280;45043;51.068;7.026;2023-08-07T05:51:47;100211.38;;;10.25;75.00
59272;BME280;45043;51.068;7.026;2023-08-07T05:54:48;100211.59;;;10.24;74.21
59272;BME280;45043;51.068;7.026;2023-08-07T05:57:52;100205.44;;;10.23;74.04
59272;BME280;45043;51.068;7.026;2023-08-07T06:00:53;100193.59;;;10.19;73.73
59272;BME280;45043;51.068;7.026;2023-08-07T06:03:54;100185.84;;;10.18;73.73
59272;BME280;45043;51.068;7.026;2023-08-07T06:06:55;100210.75;;;10.17;73.68
59272;BME280;45043;51.068;7.026;2023-08-07T06:09:56;100200.97;;;10.17;73.41
59272;BME280;45043;51.068;7.026;2023-08-07T06:12:56;100190.34;;;10.17;73.79
59272;BME280;45043;51.068;7.026;2023-08-07T06:15:57;100206.84;;;10.13;73.50
59272;BME280;45043;51.068;7.026;2023-08-07T06:18:57;100209.31;;;10.14;74.03
59272;BME280;45043;51.068;7.026;2023-08-07T06:21:58;100226.25;;;10.13;73.69
59272;BME280;45043;51.068;7.026;2023-08-07T06:24:59;100216.25;;;10.15;73.92
59272;BME280;45043;51.068;7.026;2023-08-07T06:28:00;100206.66;;;10.14;73.71
59272;BME280;45043;51.068;7.026;2023-08-07T06:31:06;100217.28;;;10.14;73.76
59272;BME280;45043;51.068;7.026;2023-08-07T06:34:08;100238.91;;;10.11;73.88
59272;BME280;45043;51.068;7.026;2023-08-07T06:37:10;100226.41;;;10.05;73.45
59272;BME280;45043;51.068;7.026;2023-08-07T06:40:11;100231.50;;;10.00;73.81
59272;BME280;45043;51.068;7.026;2023-08-07T06:43:12;100220.69;;;9.95;73.85
59272;BME280;45043;51.068;7.026;2023-08-07T06:46:13;100256.81;;;9.96;74.05
59272;BME280;45043;51.068;7.026;2023-08-07T06:49:14;100240.69;;;9.91;73.92
59272;BME280;45043;51.068;7.026;2023-08-07T06:52:15;100262.47;;;9.86;73.99
59272;BME280;45043;51.068;7.026;2023-08-07T06:55:16;100236.19;;;9.91;74.42
59272;BME280;45043;51.068;7.026;2023-08-07T06:58:17;100240.06;;;9.95;74.81
59272;BME280;45043;51.068;7.026;2023-08-07T07:01:18;100262.94;;;9.96;74.65
59272;BME280;45043;51.068;7.026;2023-08-07T07:04:19;100261.91;;;9.91;74.33
59272;BME280;45043;51.068;7.026;2023-08-07T07:07:20;100241.47;;;9.85;74.49
59272;BME280;45043;51.068;7.026;2023-08-07T07:10:21;100253.81;;;9.71;74.56
59272;BME280;45043;51.068;7.026;2023-08-07T07:13:22;100260.38;;;9.68;75.08
59272;BME280;45043;51.068;7.026;2023-08-07T07:16:23;100286.63;;;9.63;75.67
59272;BME280;45043;51.068;7.026;2023-08-07T07:19:24;100273.09;;;9.51;76.35
59272;BME280;45043;51.068;7.026;2023-08-07T07:22:25;100291.19;;;9.48;76.13
59272;BME280;45043;51.068;7.026;2023-08-07T07:25:26;100303.00;;;9.45;76.31
59272;BME280;45043;51.068;7.026;2023-08-07T07:28:27;100294.38;;;9.37;76.48
59272;BME280;45043;51.068;7.026;2023-08-07T07:31:28;100278.03;;;9.33;76.96
59272;BME280;45043;51.068;7.026;2023-08-07T07:34:29;100286.59;;;9.28;77.26
59272;BME280;45043;51.068;7.026;2023-08-07T07:37:30;100349.38;;;9.28;77.39
59272;BME280;45043;51.068;7.026;2023-08-07T07:40:34;100306.53;;;9.24;77.94
59272;BME280;45043;51.068;7.026;2023-08-07T07:43:35;100291.44;;;9.25;78.11
59272;BME280;45043;51.068;7.026;2023-08-07T07:46:36;100341.75;;;9.18;78.21
59272;BME280;45043;51.068;7.026;2023-08-07T07:49:37;100302.38;;;9.15;78.70
59272;BME280;45043;51.068;7.026;2023-08-07T07:52:37;100322.38;;;9.18;78.72
59272;BME280;45043;51.068;7.026;2023-08-07T07:55:38;100309.94;;;9.18;78.64
59272;BME280;45043;51.068;7.026;2023-08-07T07:58:39;100313.25;;;9.20;78.90
59272;BME280;45043;51.068;7.026;2023-08-07T08:01:41;100335.06;;;9.22;79.11
59272;BME280;45043;51.068;7.026;2023-08-07T08:04:42;100320.16;;;9.21;79.08
59272;BME280;45043;51.068;7.026;2023-08-07T08:07:43;100342.25;;;9.28;79.06
59272;BME280;45043;51.068;7.026;2023-08-07T08:10:44;100366.72;;;9.31;79.35
59272;BME280;45043;51.068;7.026;2023-08-07T08:13:46;100364.88;;;9.31;78.89
59272;BME280;45043;51.068;7.026;2023-08-07T08:16:47;100337.19;;;9.34;78.46
59272;BME280;45043;51.068;7.026;2023-08-07T08:19:48;100355.75;;;9.34;78.98
59272;BME280;45043;51.068;7.026;2023-08-07T08:22:49;100364.34;;;9.36;78.68
59272;BME280;45043;51.068;7.026;2023-08-07T08:25:50;100373.72;;;9.38;78.49
59272;BME280;45043;51.068;7.026;2023-08-07T08:28:51;100371.91;;;9.39;78.82
59272;BME280;45043;51.068;7.026;2023-08-07T08:31:52;100392.34;;;9.45;79.14
59272;BME280;45043;51.068;7.026;2023-08-07T08:34:56;100388.28;;;9.49;78.60
59272;BME280;45043;51.068;7.026;2023-08-07T08:37:57;100423.56;;;9.43;78.33
59272;BME280;45043;51.068;7.026;2023-08-07T08:41:02;100411.91;;;9.44;78.79
59272;BME280;45043;51.068;7.026;2023-08-07T08:44:04;100447.56;;;9.56;78.92
59272;BME280;45043;51.068;7.026;2023-08-07T08:47:07;100420.84;;;9.58;78.68
59272;BME280;45043;51.068;7.026;2023-08-07T08:50:12;100421.28;;;9.61;78.54
59272;BME280;45043;51.068;7.026;2023-08-07T08:53:14;100436.19;;;9.62;78.44
59272;BME280;45043;51.068;7.026;2023-08-07T08:56:15;100432.50;;;9.63;78.65
59272;BME280;45043;51.068;7.026;2023-08-07T08:59:17;100424.81;;;9.68;78.61
59272;BME280;45043;51.068;7.026;2023-08-07T09:02:19;100422.41;;;9.73;78.57
59272;BME280;45043;51.068;7.026;2023-08-07T09:05:21;100427.38;;;9.83;78.65
59272;BME280;45043;51.068;7.026;2023-08-07T09:08:22;100443.47;;;9.82;78.09
59272;BME280;45043;51.068;7.026;2023-08-07T09:11:26;100433.06;;;9.80;78.12
59272;BME280;45043;51.068;7.026;2023-08-07T09:14:30;100444.06;;;9.77;77.68
59272;BME280;45043;51.068;7.026;2023-08-07T09:17:39;100438.16;;;9.54;77.50
59272;BME280;45043;51.068;7.026;2023-08-07T09:20:41;100427.00;;;9.43;78.13
59272;BME280;45043;51.068;7.026;2023-08-07T09:23:43;100412.69;;;9.59;78.21
59272;BME280;45043;51.068;7.026;2023-08-07T09:26:44;100425.72;;;9.82;77.86
59272;BME280;45043;51.068;7.026;2023-08-07T09:29:46;100412.63;;;10.09;77.48
59272;BME280;45043;51.068;7.026;2023-08-07T09:32:50;100438.31;;;10.30;76.66
59272;BME280;45043;51.068;7.026;2023-08-07T09:35:50;100434.38;;;10.54;75.87
59272;BME280;45043;51.068;7.026;2023-08-07T09:38:51;100431.03;;;10.86;75.61
59272;BME280;45043;51.068;7.026;2023-08-07T09:41:52;100472.81;;;11.06;75.06
59272;BME280;45043;51.068;7.026;2023-08-07T09:44:55;100457.09;;;11.17;74.73
59272;BME280;45043;51.068;7.026;2023-08-07T09:48:03;100465.72;;;11.33;73.72
59272;BME280;45043;51.068;7.026;2023-08-07T09:51:04;100459.63;;;11.39;73.35
59272;BME280;45043;51.068;7.026;2023-08-07T09:54:05;100459.41;;;11.47;72.65
59272;BME280;45043;51.068;7.026;2023-08-07T09:57:07;100462.28;;;11.39;72.50
59272;BME280;45043;51.068;7.026;2023-08-07T10:00:08;100467.41;;;11.47;72.56
59272;BME280;45043;51.068;7.026;2023-08-07T10:03:13;100453.28;;;11.60;71.86
59272;BME280;45043;51.068;7.026;2023-08-07T10:06:14;100474.81;;;11.78;71.38
59272;BME280;45043;51.068;7.026;2023-08-07T10:09:15;100455.56;;;11.96;70.24
59272;BME280;45043;51.068;7.026;2023-08-07T10:12:17;100469.47;;;12.11;68.97
59272;BME280;45043;51.068;7.026;2023-08-07T10:15:19;100494.03;;;12.20;67.98
59272;BME280;45043;51.068;7.026;2023-08-07T10:18:20;100468.66;;;12.17;67.21
59272;BME280;45043;51.068;7.026;2023-08-07T10:21:24;100493.22;;;12.20;66.68
59272;BME280;45043;51.068;7.026;2023-08-07T10:24:25;100474.41;;;12.14;66.01
59272;BME280;45043;51.068;7.026;2023-08-07T10:27:29;100466.19;;;12.23;65.70
59272;BME280;45043;51.068;7.026;2023-08-07T10:30:32;100463.91;;;12.33;65.49
59272;BME280;45043;51.068;7.026;2023-08-07T10:33:34;100510.41;;;12.50;65.11
59272;BME280;45043;51.068;7.026;2023-08-07T10:36:36;100488.06;;;12.58;63.73
59272;BME280;45043;51.068;7.026;2023-08-07T10:40:02;100466.28;;;12.67;63.48
59272;BME280;45043;51.068;7.026;2023-08-07T10:43:17;100476.31;;;12.79;62.68
59272;BME280;45043;51.068;7.026;2023-08-07T10:46:21;100469.13;;;12.73;63.05
59272;BME280;45043;51.068;7.026;2023-08-07T10:52:38;100459.88;;;12.88;62.88
59272;BME280;45043;51.068;7.026;2023-08-07T10:55:44;100448.50;;;13.06;61.23
59272;BME280;45043;51.068;7.026;2023-08-07T10:58:50;100466.72;;;13.09;58.66
59272;BME280;45043;51.068;7.026;2023-08-07T11:01:54;100473.22;;;13.27;57.26
59272;BME280;45043;51.068;7.026;2023-08-07T11:04:55;100475.03;;;13.33;56.22
59272;BME280;45043;51.068;7.026;2023-08-07T11:07:56;100455.72;;;13.31;55.17
59272;BME280;45043;51.068;7.026;2023-08-07T11:11:04;100469.50;;;13.28;54.42
59272;BME280;45043;51.068;7.026;2023-08-07T11:14:06;100461.34;;;13.23;54.67
59272;BME280;45043;51.068;7.026;2023-08-07T11:17:07;100518.38;;;13.28;54.09
59272;BME280;45043;51.068;7.026;2023-08-07T11:20:09;100485.44;;;13.41;53.54
59272;BME280;45043;51.068;7.026;2023-08-07T11:23:11;100486.22;;;13.48;53.58
59272;BME280;45043;51.068;7.026;2023-08-07T11:26:12;100475.97;;;13.45;53.57
59272;BME280;45043;51.068;7.026;2023-08-07T11:29:17;100475.81;;;13.40;52.07
59272;BME280;45043;51.068;7.026;2023-08-07T11:32:21;100457.09;;;13.47;51.03
59272;BME280;45043;51.068;7.026;2023-08-07T11:35:23;100504.47;;;13.51;50.17
59272;BME280;45043;51.068;7.026;2023-08-07T11:38:37;100489.81;;;13.60;49.21
59272;BME280;45043;51.068;7.026;2023-08-07T11:41:38;100486.53;;;13.65;48.14
59272;BME280;45043;51.068;7.026;2023-08-07T11:44:40;100468.00;;;13.70;47.05
59272;BME280;45043;51.068;7.026;2023-08-07T11:47:43;100497.78;;;13.74;46.79
59272;BME280;45043;51.068;7.026;2023-08-07T11:50:44;100485.19;;;13.81;46.83
59272;BME280;45043;51.068;7.026;2023-08-07T11:53:46;100474.38;;;13.94;46.58
59272;BME280;45043;51.068;7.026;2023-08-07T11:56:47;100454.34;;;14.10;47.27
59272;BME280;45043;51.068;7.026;2023-08-07T11:59:50;100466.69;;;14.29;47.18
59272;BME280;45043;51.068;7.026;2023-08-07T12:02:51;100478.94;;;14.37;46.32
59272;BME280;45043;51.068;7.026;2023-08-07T12:05:53;100481.44;;;14.50;46.30
59272;BME280;45043;51.068;7.026;2023-08-07T12:08:55;100505.25;;;14.58;45.05
59272;BME280;45043;51.068;7.026;2023-08-07T12:11:57;100464.97;;;14.90;44.19
59272;BME280;45043;51.068;7.026;2023-08-07T12:14:59;100481.75;;;14.97;43.18
59272;BME280;45043;51.068;7.026;2023-08-07T12:18:01;100502.13;;;14.98;43.82
59272;BME280;45043;51.068;7.026;2023-08-07T12:21:06;100461.78;;;15.00;42.93
59272;BME280;45043;51.068;7.026;2023-08-07T12:24:07;100469.50;;;14.90;42.49
59272;BME280;45043;51.068;7.026;2023-08-07T12:27:08;100478.66;;;14.82;43.32
59272;BME280;45043;51.068;7.026;2023-08-07T12:30:10;100453.69;;;14.88;43.00
59272;BME280;45043;51.068;7.026;2023-08-07T12:33:14;100463.06;;;15.09;42.74
59272;BME280;45043;51.068;7.026;2023-08-07T12:36:15;100504.75;;;15.17;41.73
59272;BME280;45043;51.068;7.026;2023-08-07T12:39:17;100488.91;;;15.03;41.56
59272;BME280;45043;51.068;7.026;2023-08-07T12:42:18;100469.13;;;15.04;41.94
59272;BME280;45043;51.068;7.026;2023-08-07T12:45:19;100484.34;;;15.04;41.12
59272;BME280;45043;51.068;7.026;2023-08-07T12:48:21;100472.28;;;15.13;40.71
59272;BME280;45043;51.068;7.026;2023-08-07T12:51:22;100460.88;;;15.36;39.92
59272;BME280;45043;51.068;7.026;2023-08-07T12:54:23;100509.25;;;15.65;39.25
59272;BME280;45043;51.068;7.026;2023-08-07T12:57:23;100516.94;;;15.61;38.96
59272;BME280;45043;51.068;7.026;2023-08-07T13:00:24;100461.03;;;15.53;39.11
59272;BME280;45043;51.068;7.026;2023-08-07T13:03:26;100484.16;;;15.77;38.44
59272;BME280;45043;51.068;7.026;2023-08-07T13:06:27;100481.25;;;15.91;38.09
59272;BME280;45043;51.068;7.026;2023-08-07T13:09:28;100473.34;;;15.84;37.45
59272;BME280;45043;51.068;7.026;2023-08-07T13:12:37;100475.06;;;16.02;36.26
59272;BME280;45043;51.068;7.026;2023-08-07T13:15:38;100512.28;;;16.22;35.32
59272;BME280;45043;51.068;7.026;2023-08-07T13:18:39;100516.09;;;16.02;35.79
59272;BME280;45043;51.068;7.026;2023-08-07T13:21:40;100521.22;;;16.04;35.26
59272;BME280;45043;51.068;7.026;2023-08-07T13:24:41;100501.53;;;16.10;35.13
59272;BME280;45043;51.068;7.026;2023-08-07T13:27:42;100492.34;;;16.30;34.44
59272;BME280;45043;51.068;7.026;2023-08-07T13:30:44;100538.94;;;16.17;35.13
59272;BME280;45043;51.068;7.026;2023-08-07T13:33:45;100480.31;;;16.09;35.29
59272;BME280;45043;51.068;7.026;2023-08-07T13:36:46;100531.41;;;16.37;34.49
59272;BME280;45043;51.068;7.026;2023-08-07T13:39:47;100487.09;;;16.58;34.42
59272;BME280;45043;51.068;7.026;2023-08-07T13:42:52;100496.13;;;16.69;34.46
59272;BME280;45043;51.068;7.026;2023-08-07T13:45:53;100548.53;;;16.48;35.30
59272;BME280;45043;51.068;7.026;2023-08-07T13:48:55;100502.00;;;16.19;35.07
59272;BME280;45043;51.068;7.026;2023-08-07T13:51:57;100514.09;;;16.10;35.60
59272;BME280;45043;51.068;7.026;2023-08-07T13:54:57;100505.75;;;16.18;34.87
59272;BME280;45043;51.068;7.026;2023-08-07T13:57:58;100495.13;;;16.46;34.51
59272;BME280;45043;51.068;7.026;2023-08-07T14:01:00;100489.28;;;16.73;34.10
59272;BME280;45043;51.068;7.026;2023-08-07T14:04:02;100509.81;;;17.08;33.56
59272;BME280;45043;51.068;7.026;2023-08-07T14:07:03;100489.38;;;17.18;33.01
59272;BME280;45043;51.068;7.026;2023-08-07T14:10:05;100474.94;;;17.36;34.00
59272;BME280;45043;51.068;7.026;2023-08-07T14:13:06;100527.41;;;17.27;33.95
59272;BME280;45043;51.068;7.026;2023-08-07T14:16:08;100502.84;;;17.35;33.32
59272;BME280;45043;51.068;7.026;2023-08-07T14:19:09;100546.13;;;17.10;34.30
59272;BME280;45043;51.068;7.026;2023-08-07T14:22:11;100525.50;;;16.87;34.73
59272;BME280;45043;51.068;7.026;2023-08-07T14:25:12;100550.59;;;16.93;35.02
59272;BME280;45043;51.068;7.026;2023-08-07T14:28:13;100526.34;;;16.76;35.67
59272;BME280;45043;51.068;7.026;2023-08-07T14:31:14;100512.50;;;16.56;36.17
59272;BME280;45043;51.068;7.026;2023-08-07T14:34:34;100504.13;;;16.40;37.31
59272;BME280;45043;51.068;7.026;2023-08-07T14:37:35;100530.84;;;16.47;37.74
59272;BME280;45043;51.068;7.026;2023-08-07T14:40:36;100548.00;;;17.38;37.49
59272;BME280;45043;51.068;7.026;2023-08-07T14:43:41;100516.03;;;18.33;36.95
59272;BME280;45043;51.068;7.026;2023-08-07T14:46:42;100528.63;;;18.88;35.79
59272;BME280;45043;51.068;7.026;2023-08-07T14:49:43;100508.09;;;19.31;35.25
59272;BME280;45043;51.068;7.026;2023-08-07T14:52:45;100546.81;;;19.74;34.40
59272;BME280;45043;51.068;7.026;2023-08-07T14:55:46;100515.75;;;19.66;34.38
59272;BME280;45043;51.068;7.026;2023-08-07T14:58:47;100521.28;;;19.54;34.83
59272;BME280;45043;51.068;7.026;2023-08-07T15:01:47;100530.38;;;18.77;35.86
59272;BME280;45043;51.068;7.026;2023-08-07T15:04:48;100534.94;;;18.21;36.80
59272;BME280;45043;51.068;7.026;2023-08-07T15:07:49;100527.06;;;17.69;36.90
59272;BME280;45043;51.068;7.026;2023-08-07T15:10:53;100547.81;;;17.28;37.42
59272;BME280;45043;51.068;7.026;2023-08-07T15:13:54;100555.81;;;16.99;38.60
59272;BME280;45043;51.068;7.026;2023-08-07T15:16:55;100534.16;;;16.78;39.33
59272;BME280;45043;51.068;7.026;2023-08-07T15:19:56;100527.72;;;16.90;39.23
59272;BME280;45043;51.068;7.026;2023-08-07T15:22:57;100540.28;;;17.02;38.89
59272;BME280;45043;51.068;7.026;2023-08-07T15:25:58;100567.28;;;16.83;39.58
59272;BME280;45043;51.068;7.026;2023-08-07T15:28:58;100546.56;;;16.43;39.73
59272;BME280;45043;51.068;7.026;2023-08-07T15:31:59;100574.94;;;16.21;39.88
59272;BME280;45043;51.068;7.026;2023-08-07T15:35:00;100551.25;;;16.06;40.40
59272;BME280;45043;51.068;7.026;2023-08-07T15:38:01;100554.78;;;16.07;41.15
59272;BME280;45043;51.068;7.026;2023-08-07T15:41:01;100554.69;;;16.25;41.17
59272;BME280;45043;51.068;7.026;2023-08-07T15:44:03;100550.63;;;16.34;41.40
59272;BME280;45043;51.068;7.026;2023-08-07T15:47:04;100559.84;;;16.38;41.61
59272;BME280;45043;51.068;7.026;2023-08-07T15:50:05;100558.91;;;16.68;40.54
59272;BME280;45043;51.068;7.026;2023-08-07T15:53:07;100554.19;;;17.39;39.83
59272;BME280;45043;51.068;7.026;2023-08-07T15:56:09;100541.06;;;18.00;38.21
59272;BME280;45043;51.068;7.026;2023-08-07T15:59:10;100554.41;;;18.28;37.43
59272;BME280;45043;51.068;7.026;2023-08-07T16:02:11;100597.50;;;18.50;37.47
59272;BME280;45043;51.068;7.026;2023-08-07T16:05:12;100555.34;;;18.95;36.84
59272;BME280;45043;51.068;7.026;2023-08-07T16:08:13;100582.06;;;19.40;35.91